sensor_id;sensor_type;location;lat;lon;timestamp;temperature;humidity
10644;DHT22;5370;50.132;8.626;2022-10-10T00:02:13;8.60;90.20
10644;DHT22;5370;50.132;8.626;2022-10-10T00:04:38;8.60;90.40
10644;DHT22;5370;50.132;8.626;2022-10-10T00:07:04;8.60;90.50
10644;DHT22;5370;50.132;8.626;2022-10-10T00:09:30;8.50;90.50
10644;DHT22;5370;50.132;8.626;2022-10-10T00:11:55;8.50;90.60
10644;DHT22;5370;50.132;8.626;2022-10-10T00:14:21;8.50;90.70
10644;DHT22;5370;50.132;8.626;2022-10-10T00:16:46;8.50;90.80
10644;DHT22;5370;50.132;8.626;2022-10-10T00:19:12;8.50;90.80
10644;DHT22;5370;50.132;8.626;2022-10-10T00:21:37;8.50;90.90
10644;DHT22;5370;50.132;8.626;2022-10-10T00:24:03;8.40;90.90
10644;DHT22;5370;50.132;8.626;2022-10-10T00:26:29;8.40;91.10
10644;DHT22;5370;50.132;8.626;2022-10-10T00:28:54;8.40;91.20
10644;DHT22;5370;50.132;8.626;2022-10-10T00:31:20;8.40;91.30
10644;DHT22;5370;50.132;8.626;2022-10-10T00:33:46;8.30;91.30
10644;DHT22;5370;50.132;8.626;2022-10-10T00:36:12;8.30;91.50
10644;DHT22;5370;50.132;8.626;2022-10-10T00:38:37;8.30;91.60
10644;DHT22;5370;50.132;8.626;2022-10-10T00:41:03;8.20;91.80
10644;DHT22;5370;50.132;8.626;2022-10-10T00:43:30;8.20;91.80
10644;DHT22;5370;50.132;8.626;2022-10-10T00:45:56;8.20;92.00
10644;DHT22;5370;50.132;8.626;2022-10-10T00:48:26;8.10;92.00
10644;DHT22;5370;50.132;8.626;2022-10-10T00:51:02;8.10;92.10
10644;DHT22;5370;50.132;8.626;2022-10-10T00:53:35;8.10;92.10
10644;DHT22;5370;50.132;8.626;2022-10-10T00:56:02;8.10;92.20
10644;DHT22;5370;50.132;8.626;2022-10-10T00:58:28;8.10;92.20
10644;DHT22;5370;50.132;8.626;2022-10-10T01:00:55;8.10;92.30
10644;DHT22;5370;50.132;8.626;2022-10-10T01:03:21;8.10;92.30
10644;DHT22;5370;50.132;8.626;2022-10-10T01:05:47;8.10;92.40
10644;DHT22;5370;50.132;8.626;2022-10-10T01:08:13;8.10;92.40
10644;DHT22;5370;50.132;8.626;2022-10-10T01:10:50;8.10;92.50
10644;DHT22;5370;50.132;8.626;2022-10-10T01:16:06;8.10;92.50
10644;DHT22;5370;50.132;8.626;2022-10-10T01:24:18;8.20;92.60
10644;DHT22;5370;50.132;8.626;2022-10-10T01:27:09;8.10;92.50
10644;DHT22;5370;50.132;8.626;2022-10-10T01:32:08;8.00;92.50
10644;DHT22;5370;50.132;8.626;2022-10-10T01:43:34;7.80;92.70
10644;DHT22;5370;50.132;8.626;2022-10-10T01:46:12;7.80;92.80
10644;DHT22;5370;50.132;8.626;2022-10-10T01:48:40;7.80;92.90
10644;DHT22;5370;50.132;8.626;2022-10-10T01:54:20;7.80;93.00
10644;DHT22;5370;50.132;8.626;2022-10-10T01:59:52;7.70;93.10
10644;DHT22;5370;50.132;8.626;2022-10-10T02:08:10;7.60;93.30
10644;DHT22;5370;50.132;8.626;2022-10-10T02:10:45;7.60;93.40
10644;DHT22;5370;50.132;8.626;2022-10-10T02:13:13;7.60;93.40
10644;DHT22;5370;50.132;8.626;2022-10-10T02:15:43;7.60;93.60
10644;DHT22;5370;50.132;8.626;2022-10-10T02:18:10;7.50;93.60
10644;DHT22;5370;50.132;8.626;2022-10-10T02:20:38;7.50;93.70
10644;DHT22;5370;50.132;8.626;2022-10-10T02:23:06;7.50;93.80
10644;DHT22;5370;50.132;8.626;2022-10-10T02:25:35;7.50;93.90
10644;DHT22;5370;50.132;8.626;2022-10-10T02:28:16;7.40;93.90
10644;DHT22;5370;50.132;8.626;2022-10-10T02:30:46;7.40;94.00
10644;DHT22;5370;50.132;8.626;2022-10-10T02:33:19;7.40;94.10
10644;DHT22;5370;50.132;8.626;2022-10-10T02:35:46;7.40;94.20
10644;DHT22;5370;50.132;8.626;2022-10-10T02:38:14;7.40;94.20
10644;DHT22;5370;50.132;8.626;2022-10-10T02:40:43;7.40;94.30
10644;DHT22;5370;50.132;8.626;2022-10-10T02:43:11;7.40;94.40
10644;DHT22;5370;50.132;8.626;2022-10-10T02:45:38;7.40;94.40
10644;DHT22;5370;50.132;8.626;2022-10-10T02:48:05;7.40;94.40
10644;DHT22;5370;50.132;8.626;2022-10-10T02:50:31;7.40;94.40
10644;DHT22;5370;50.132;8.626;2022-10-10T02:52:57;7.30;94.40
10644;DHT22;5370;50.132;8.626;2022-10-10T02:55:23;7.30;94.50
10644;DHT22;5370;50.132;8.626;2022-10-10T02:57:50;7.30;94.50
10644;DHT22;5370;50.132;8.626;2022-10-10T03:00:16;7.30;94.60
10644;DHT22;5370;50.132;8.626;2022-10-10T03:02:42;7.30;94.70
10644;DHT22;5370;50.132;8.626;2022-10-10T03:05:08;7.30;94.70
10644;DHT22;5370;50.132;8.626;2022-10-10T03:07:34;7.30;94.80
10644;DHT22;5370;50.132;8.626;2022-10-10T03:10:00;7.30;94.70
10644;DHT22;5370;50.132;8.626;2022-10-10T03:12:25;7.30;94.70
10644;DHT22;5370;50.132;8.626;2022-10-10T03:14:51;7.20;94.70
10644;DHT22;5370;50.132;8.626;2022-10-10T03:17:17;7.20;94.70
10644;DHT22;5370;50.132;8.626;2022-10-10T03:19:42;7.20;94.80
10644;DHT22;5370;50.132;8.626;2022-10-10T03:22:08;7.20;94.80
10644;DHT22;5370;50.132;8.626;2022-10-10T03:24:33;7.20;94.90
10644;DHT22;5370;50.132;8.626;2022-10-10T03:26:59;7.20;94.90
10644;DHT22;5370;50.132;8.626;2022-10-10T03:29:25;7.20;95.00
10644;DHT22;5370;50.132;8.626;2022-10-10T03:31:50;7.20;95.00
10644;DHT22;5370;50.132;8.626;2022-10-10T03:34:16;7.20;95.00
10644;DHT22;5370;50.132;8.626;2022-10-10T03:36:42;7.20;95.00
10644;DHT22;5370;50.132;8.626;2022-10-10T03:39:07;7.20;94.90
10644;DHT22;5370;50.132;8.626;2022-10-10T03:41:34;7.20;95.00
10644;DHT22;5370;50.132;8.626;2022-10-10T03:44:00;7.10;95.00
10644;DHT22;5370;50.132;8.626;2022-10-10T03:46:26;7.10;95.00
10644;DHT22;5370;50.132;8.626;2022-10-10T03:48:51;7.20;95.00
10644;DHT22;5370;50.132;8.626;2022-10-10T03:51:17;7.10;95.10
10644;DHT22;5370;50.132;8.626;2022-10-10T03:53:42;7.10;95.10
10644;DHT22;5370;50.132;8.626;2022-10-10T03:56:08;7.10;95.10
10644;DHT22;5370;50.132;8.626;2022-10-10T03:58:34;7.10;95.20
10644;DHT22;5370;50.132;8.626;2022-10-10T04:01:00;7.10;95.20
10644;DHT22;5370;50.132;8.626;2022-10-10T04:03:27;7.10;95.10
10644;DHT22;5370;50.132;8.626;2022-10-10T04:05:53;7.10;95.20
10644;DHT22;5370;50.132;8.626;2022-10-10T04:08:19;7.10;95.30
10644;DHT22;5370;50.132;8.626;2022-10-10T04:10:49;7.10;95.30
10644;DHT22;5370;50.132;8.626;2022-10-10T04:13:14;7.20;95.40
10644;DHT22;5370;50.132;8.626;2022-10-10T04:15:40;7.10;95.30
10644;DHT22;5370;50.132;8.626;2022-10-10T04:18:05;7.10;95.30
10644;DHT22;5370;50.132;8.626;2022-10-10T04:20:31;7.10;95.30
10644;DHT22;5370;50.132;8.626;2022-10-10T04:22:56;7.10;95.20
10644;DHT22;5370;50.132;8.626;2022-10-10T04:25:22;7.10;95.30
10644;DHT22;5370;50.132;8.626;2022-10-10T04:27:47;7.10;95.20
10644;DHT22;5370;50.132;8.626;2022-10-10T04:30:13;7.10;95.60
10644;DHT22;5370;50.132;8.626;2022-10-10T04:32:38;7.00;95.40
10644;DHT22;5370;50.132;8.626;2022-10-10T04:35:04;7.00;95.40
10644;DHT22;5370;50.132;8.626;2022-10-10T04:37:30;7.00;95.50
10644;DHT22;5370;50.132;8.626;2022-10-10T04:39:55;7.00;95.60
10644;DHT22;5370;50.132;8.626;2022-10-10T04:42:21;7.00;95.60
10644;DHT22;5370;50.132;8.626;2022-10-10T04:44:47;7.00;95.60
10644;DHT22;5370;50.132;8.626;2022-10-10T04:47:13;7.00;95.70
10644;DHT22;5370;50.132;8.626;2022-10-10T04:49:38;7.00;95.70
10644;DHT22;5370;50.132;8.626;2022-10-10T04:52:07;7.00;95.70
10644;DHT22;5370;50.132;8.626;2022-10-10T04:54:32;7.00;95.70
10644;DHT22;5370;50.132;8.626;2022-10-10T04:56:58;7.10;95.80
10644;DHT22;5370;50.132;8.626;2022-10-10T04:59:23;7.10;95.80
10644;DHT22;5370;50.132;8.626;2022-10-10T05:01:49;7.10;95.80
10644;DHT22;5370;50.132;8.626;2022-10-10T05:04:14;7.10;95.80
10644;DHT22;5370;50.132;8.626;2022-10-10T05:06:40;7.10;95.80
10644;DHT22;5370;50.132;8.626;2022-10-10T05:09:05;7.10;95.70
10644;DHT22;5370;50.132;8.626;2022-10-10T05:11:31;7.10;95.70
10644;DHT22;5370;50.132;8.626;2022-10-10T05:13:56;7.10;95.70
10644;DHT22;5370;50.132;8.626;2022-10-10T05:16:22;7.10;95.80
10644;DHT22;5370;50.132;8.626;2022-10-10T05:18:47;7.10;95.70
10644;DHT22;5370;50.132;8.626;2022-10-10T05:21:13;7.20;95.70
10644;DHT22;5370;50.132;8.626;2022-10-10T05:23:38;7.20;95.80
10644;DHT22;5370;50.132;8.626;2022-10-10T05:26:06;7.20;95.80
10644;DHT22;5370;50.132;8.626;2022-10-10T05:28:31;7.20;95.80
10644;DHT22;5370;50.132;8.626;2022-10-10T05:30:59;7.20;95.80
10644;DHT22;5370;50.132;8.626;2022-10-10T05:33:25;7.20;95.70
10644;DHT22;5370;50.132;8.626;2022-10-10T05:35:50;7.20;95.70
10644;DHT22;5370;50.132;8.626;2022-10-10T05:38:16;7.20;95.80
10644;DHT22;5370;50.132;8.626;2022-10-10T05:40:42;7.20;95.90
10644;DHT22;5370;50.132;8.626;2022-10-10T05:43:08;7.20;95.90
10644;DHT22;5370;50.132;8.626;2022-10-10T05:45:33;7.20;95.90
10644;DHT22;5370;50.132;8.626;2022-10-10T05:47:59;7.20;95.90
10644;DHT22;5370;50.132;8.626;2022-10-10T05:50:35;7.30;95.80
10644;DHT22;5370;50.132;8.626;2022-10-10T05:53:01;7.30;95.80
10644;DHT22;5370;50.132;8.626;2022-10-10T05:55:27;7.30;95.80
10644;DHT22;5370;50.132;8.626;2022-10-10T05:57:52;7.30;95.70
10644;DHT22;5370;50.132;8.626;2022-10-10T06:00:18;7.30;95.70
10644;DHT22;5370;50.132;8.626;2022-10-10T06:02:44;7.40;95.80
10644;DHT22;5370;50.132;8.626;2022-10-10T06:05:09;7.40;95.70
10644;DHT22;5370;50.132;8.626;2022-10-10T06:07:35;7.40;95.60
10644;DHT22;5370;50.132;8.626;2022-10-10T06:10:00;7.40;95.50
10644;DHT22;5370;50.132;8.626;2022-10-10T06:12:26;7.40;95.50
10644;DHT22;5370;50.132;8.626;2022-10-10T06:14:51;7.50;95.60
10644;DHT22;5370;50.132;8.626;2022-10-10T06:17:17;7.50;95.70
10644;DHT22;5370;50.132;8.626;2022-10-10T06:19:43;7.50;95.70
10644;DHT22;5370;50.132;8.626;2022-10-10T06:22:08;7.60;95.70
10644;DHT22;5370;50.132;8.626;2022-10-10T06:24:34;7.60;95.70
10644;DHT22;5370;50.132;8.626;2022-10-10T06:27:00;7.70;95.60
10644;DHT22;5370;50.132;8.626;2022-10-10T06:29:25;7.70;95.50
10644;DHT22;5370;50.132;8.626;2022-10-10T06:31:51;7.80;95.50
10644;DHT22;5370;50.132;8.626;2022-10-10T06:34:16;7.80;95.40
10644;DHT22;5370;50.132;8.626;2022-10-10T06:36:42;7.90;95.40
10644;DHT22;5370;50.132;8.626;2022-10-10T06:39:07;8.00;95.40
10644;DHT22;5370;50.132;8.626;2022-10-10T06:41:33;8.10;95.30
10644;DHT22;5370;50.132;8.626;2022-10-10T06:43:58;8.10;95.20
10644;DHT22;5370;50.132;8.626;2022-10-10T06:46:24;8.20;95.10
10644;DHT22;5370;50.132;8.626;2022-10-10T06:48:49;8.30;95.10
10644;DHT22;5370;50.132;8.626;2022-10-10T06:51:16;8.50;95.10
10644;DHT22;5370;50.132;8.626;2022-10-10T06:53:42;8.60;95.10
10644;DHT22;5370;50.132;8.626;2022-10-10T06:56:10;8.70;94.70
10644;DHT22;5370;50.132;8.626;2022-10-10T06:58:42;8.90;94.40
10644;DHT22;5370;50.132;8.626;2022-10-10T07:01:08;9.00;94.20
10644;DHT22;5370;50.132;8.626;2022-10-10T07:03:34;9.10;94.00
10644;DHT22;5370;50.132;8.626;2022-10-10T07:06:00;9.20;93.70
10644;DHT22;5370;50.132;8.626;2022-10-10T07:08:26;9.20;93.60
10644;DHT22;5370;50.132;8.626;2022-10-10T07:10:52;9.40;93.60
10644;DHT22;5370;50.132;8.626;2022-10-10T07:13:18;9.50;93.60
10644;DHT22;5370;50.132;8.626;2022-10-10T07:15:44;9.60;93.40
10644;DHT22;5370;50.132;8.626;2022-10-10T07:18:09;9.80;93.20
10644;DHT22;5370;50.132;8.626;2022-10-10T07:20:36;9.90;93.00
10644;DHT22;5370;50.132;8.626;2022-10-10T07:23:02;10.00;92.30
10644;DHT22;5370;50.132;8.626;2022-10-10T07:25:28;10.10;92.40
10644;DHT22;5370;50.132;8.626;2022-10-10T07:27:54;10.20;92.40
10644;DHT22;5370;50.132;8.626;2022-10-10T07:30:21;10.30;92.30
10644;DHT22;5370;50.132;8.626;2022-10-10T07:32:47;10.40;92.00
10644;DHT22;5370;50.132;8.626;2022-10-10T07:35:12;10.60;91.80
10644;DHT22;5370;50.132;8.626;2022-10-10T07:37:38;10.70;91.60
10644;DHT22;5370;50.132;8.626;2022-10-10T07:40:04;10.80;91.30
10644;DHT22;5370;50.132;8.626;2022-10-10T07:42:30;11.00;91.10
10644;DHT22;5370;50.132;8.626;2022-10-10T07:44:56;11.10;90.90
10644;DHT22;5370;50.132;8.626;2022-10-10T07:47:21;11.30;90.70
10644;DHT22;5370;50.132;8.626;2022-10-10T07:49:47;11.50;90.50
10644;DHT22;5370;50.132;8.626;2022-10-10T07:52:12;11.70;90.30
10644;DHT22;5370;50.132;8.626;2022-10-10T07:54:38;11.90;90.00
10644;DHT22;5370;50.132;8.626;2022-10-10T07:57:03;12.20;89.60
10644;DHT22;5370;50.132;8.626;2022-10-10T07:59:29;12.50;88.40
10644;DHT22;5370;50.132;8.626;2022-10-10T08:01:55;12.80;87.20
10644;DHT22;5370;50.132;8.626;2022-10-10T08:04:20;13.00;85.90
10644;DHT22;5370;50.132;8.626;2022-10-10T08:06:46;13.30;84.80
10644;DHT22;5370;50.132;8.626;2022-10-10T08:09:12;13.50;83.50
10644;DHT22;5370;50.132;8.626;2022-10-10T08:11:38;13.80;82.20
10644;DHT22;5370;50.132;8.626;2022-10-10T08:14:04;13.90;80.40
10644;DHT22;5370;50.132;8.626;2022-10-10T08:16:29;14.10;78.80
10644;DHT22;5370;50.132;8.626;2022-10-10T08:18:55;14.10;77.60
10644;DHT22;5370;50.132;8.626;2022-10-10T08:21:20;14.10;76.70
10644;DHT22;5370;50.132;8.626;2022-10-10T08:23:46;14.10;76.00
10644;DHT22;5370;50.132;8.626;2022-10-10T08:26:13;14.00;75.30
10644;DHT22;5370;50.132;8.626;2022-10-10T08:28:40;14.00;74.70
10644;DHT22;5370;50.132;8.626;2022-10-10T08:31:06;14.00;74.40
10644;DHT22;5370;50.132;8.626;2022-10-10T08:33:32;14.00;74.30
10644;DHT22;5370;50.132;8.626;2022-10-10T08:35:58;14.10;74.30
10644;DHT22;5370;50.132;8.626;2022-10-10T08:38:25;14.20;74.50
10644;DHT22;5370;50.132;8.626;2022-10-10T08:40:53;14.30;74.40
10644;DHT22;5370;50.132;8.626;2022-10-10T08:45:51;14.50;74.40
10644;DHT22;5370;50.132;8.626;2022-10-10T08:48:22;14.50;73.70
10644;DHT22;5370;50.132;8.626;2022-10-10T08:50:52;14.50;73.20
10644;DHT22;5370;50.132;8.626;2022-10-10T08:53:26;14.50;73.00
10644;DHT22;5370;50.132;8.626;2022-10-10T08:55:54;14.50;73.40
10644;DHT22;5370;50.132;8.626;2022-10-10T08:58:23;14.50;73.80
10644;DHT22;5370;50.132;8.626;2022-10-10T09:00:58;14.80;75.30
10644;DHT22;5370;50.132;8.626;2022-10-10T09:03:34;14.90;75.20
10644;DHT22;5370;50.132;8.626;2022-10-10T09:11:37;15.40;71.70
10644;DHT22;5370;50.132;8.626;2022-10-10T09:14:17;15.40;71.30
10644;DHT22;5370;50.132;8.626;2022-10-10T09:16:57;15.40;71.20
10644;DHT22;5370;50.132;8.626;2022-10-10T09:22:18;15.30;70.50
10644;DHT22;5370;50.132;8.626;2022-10-10T09:24:52;15.30;70.40
10644;DHT22;5370;50.132;8.626;2022-10-10T09:27:27;15.30;70.50
10644;DHT22;5370;50.132;8.626;2022-10-10T09:29:59;15.30;71.30
10644;DHT22;5370;50.132;8.626;2022-10-10T09:32:49;15.30;70.90
10644;DHT22;5370;50.132;8.626;2022-10-10T09:35:22;15.30;70.90
10644;DHT22;5370;50.132;8.626;2022-10-10T09:37:50;15.30;70.80
10644;DHT22;5370;50.132;8.626;2022-10-10T09:40:30;15.40;71.10
10644;DHT22;5370;50.132;8.626;2022-10-10T09:43:15;15.50;71.30
10644;DHT22;5370;50.132;8.626;2022-10-10T09:45:50;15.50;71.30
10644;DHT22;5370;50.132;8.626;2022-10-10T09:48:16;15.60;71.30
10644;DHT22;5370;50.132;8.626;2022-10-10T09:50:42;15.60;71.20
10644;DHT22;5370;50.132;8.626;2022-10-10T09:53:13;15.70;71.20
10644;DHT22;5370;50.132;8.626;2022-10-10T09:55:40;15.70;70.80
10644;DHT22;5370;50.132;8.626;2022-10-10T09:58:38;15.80;70.70
10644;DHT22;5370;50.132;8.626;2022-10-10T10:01:24;15.90;70.80
10644;DHT22;5370;50.132;8.626;2022-10-10T10:04:17;15.90;70.50
10644;DHT22;5370;50.132;8.626;2022-10-10T10:06:49;16.00;70.60
10644;DHT22;5370;50.132;8.626;2022-10-10T10:09:20;16.10;70.30
10644;DHT22;5370;50.132;8.626;2022-10-10T10:11:53;16.20;70.10
10644;DHT22;5370;50.132;8.626;2022-10-10T10:16:50;16.40;69.70
10644;DHT22;5370;50.132;8.626;2022-10-10T10:19:39;16.50;69.40
10644;DHT22;5370;50.132;8.626;2022-10-10T10:22:22;16.60;69.00
10644;DHT22;5370;50.132;8.626;2022-10-10T10:24:48;16.60;68.90
10644;DHT22;5370;50.132;8.626;2022-10-10T10:27:19;16.70;68.90
10644;DHT22;5370;50.132;8.626;2022-10-10T10:29:47;16.80;68.60
10644;DHT22;5370;50.132;8.626;2022-10-10T10:32:30;17.00;68.30
10644;DHT22;5370;50.132;8.626;2022-10-10T10:35:04;17.10;67.60
10644;DHT22;5370;50.132;8.626;2022-10-10T10:37:46;17.20;67.40
10644;DHT22;5370;50.132;8.626;2022-10-10T10:43:32;17.70;67.50
10644;DHT22;5370;50.132;8.626;2022-10-10T10:49:21;18.20;66.30
10644;DHT22;5370;50.132;8.626;2022-10-10T10:52:20;18.50;65.50
10644;DHT22;5370;50.132;8.626;2022-10-10T10:55:14;18.60;64.30
10644;DHT22;5370;50.132;8.626;2022-10-10T10:57:54;18.80;64.00
10644;DHT22;5370;50.132;8.626;2022-10-10T11:00:21;18.90;63.40
10644;DHT22;5370;50.132;8.626;2022-10-10T11:05:44;19.10;62.70
10644;DHT22;5370;50.132;8.626;2022-10-10T11:08:47;19.10;62.40
10644;DHT22;5370;50.132;8.626;2022-10-10T11:22:07;19.00;63.50
10644;DHT22;5370;50.132;8.626;2022-10-10T11:24:45;19.00;63.60
10644;DHT22;5370;50.132;8.626;2022-10-10T11:29:55;19.10;63.50
10644;DHT22;5370;50.132;8.626;2022-10-10T11:32:29;19.20;63.70
10644;DHT22;5370;50.132;8.626;2022-10-10T11:35:01;19.20;64.10
10644;DHT22;5370;50.132;8.626;2022-10-10T11:37:30;19.30;64.00
10644;DHT22;5370;50.132;8.626;2022-10-10T11:40:04;19.30;63.70
10644;DHT22;5370;50.132;8.626;2022-10-10T11:42:45;19.40;63.60
10644;DHT22;5370;50.132;8.626;2022-10-10T11:45:21;19.50;63.70
10644;DHT22;5370;50.132;8.626;2022-10-10T11:50:39;19.60;63.60
10644;DHT22;5370;50.132;8.626;2022-10-10T11:53:32;19.70;63.30
10644;DHT22;5370;50.132;8.626;2022-10-10T11:56:22;19.80;62.90
10644;DHT22;5370;50.132;8.626;2022-10-10T11:58:59;19.90;62.80
10644;DHT22;5370;50.132;8.626;2022-10-10T12:01:30;19.90;62.60
10644;DHT22;5370;50.132;8.626;2022-10-10T12:03:58;20.00;62.30
10644;DHT22;5370;50.132;8.626;2022-10-10T12:06:29;20.00;61.80
10644;DHT22;5370;50.132;8.626;2022-10-10T12:09:14;20.10;61.70
10644;DHT22;5370;50.132;8.626;2022-10-10T12:11:43;20.20;61.30
10644;DHT22;5370;50.132;8.626;2022-10-10T12:14:14;20.20;61.00
10644;DHT22;5370;50.132;8.626;2022-10-10T12:16:41;20.20;60.70
10644;DHT22;5370;50.132;8.626;2022-10-10T12:19:18;20.30;60.80
10644;DHT22;5370;50.132;8.626;2022-10-10T12:22:02;20.40;60.40
10644;DHT22;5370;50.132;8.626;2022-10-10T12:24:37;20.40;59.90
10644;DHT22;5370;50.132;8.626;2022-10-10T12:27:28;20.40;59.90
10644;DHT22;5370;50.132;8.626;2022-10-10T12:35:34;20.60;59.60
10644;DHT22;5370;50.132;8.626;2022-10-10T12:38:22;20.70;59.30
10644;DHT22;5370;50.132;8.626;2022-10-10T12:41:11;20.80;59.00
10644;DHT22;5370;50.132;8.626;2022-10-10T12:46:17;20.90;58.60
10644;DHT22;5370;50.132;8.626;2022-10-10T12:48:56;20.90;58.30
10644;DHT22;5370;50.132;8.626;2022-10-10T12:51:23;21.00;58.30
10644;DHT22;5370;50.132;8.626;2022-10-10T12:53:52;21.00;58.10
10644;DHT22;5370;50.132;8.626;2022-10-10T12:56:38;21.00;57.90
10644;DHT22;5370;50.132;8.626;2022-10-10T12:59:15;21.10;57.60
10644;DHT22;5370;50.132;8.626;2022-10-10T13:01:45;21.10;57.60
10644;DHT22;5370;50.132;8.626;2022-10-10T13:04:18;21.10;57.60
10644;DHT22;5370;50.132;8.626;2022-10-10T13:06:45;21.20;57.20
10644;DHT22;5370;50.132;8.626;2022-10-10T13:09:25;21.20;57.00
10644;DHT22;5370;50.132;8.626;2022-10-10T13:11:58;21.20;56.90
10644;DHT22;5370;50.132;8.626;2022-10-10T13:14:25;21.30;57.00
10644;DHT22;5370;50.132;8.626;2022-10-10T13:16:51;21.30;56.90
10644;DHT22;5370;50.132;8.626;2022-10-10T13:19:22;21.20;56.80
10644;DHT22;5370;50.132;8.626;2022-10-10T13:21:51;21.20;56.80
10644;DHT22;5370;50.132;8.626;2022-10-10T13:24:21;21.20;56.80
10644;DHT22;5370;50.132;8.626;2022-10-10T13:26:50;21.20;56.80
10644;DHT22;5370;50.132;8.626;2022-10-10T13:29:30;21.20;56.80
10644;DHT22;5370;50.132;8.626;2022-10-10T13:32:08;21.20;56.80
10644;DHT22;5370;50.132;8.626;2022-10-10T13:34:38;21.10;56.80
10644;DHT22;5370;50.132;8.626;2022-10-10T13:37:05;21.00;57.00
10644;DHT22;5370;50.132;8.626;2022-10-10T13:39:33;21.00;57.20
10644;DHT22;5370;50.132;8.626;2022-10-10T13:42:01;20.90;57.10
10644;DHT22;5370;50.132;8.626;2022-10-10T13:44:52;20.90;57.20
10644;DHT22;5370;50.132;8.626;2022-10-10T13:52:43;20.90;57.40
10644;DHT22;5370;50.132;8.626;2022-10-10T13:55:18;21.00;57.60
10644;DHT22;5370;50.132;8.626;2022-10-10T13:57:46;21.00;57.60
10644;DHT22;5370;50.132;8.626;2022-10-10T14:00:17;21.20;57.60
10644;DHT22;5370;50.132;8.626;2022-10-10T14:02:43;21.20;57.40
10644;DHT22;5370;50.132;8.626;2022-10-10T14:05:28;21.30;57.30
10644;DHT22;5370;50.132;8.626;2022-10-10T14:07:55;21.40;57.00
10644;DHT22;5370;50.132;8.626;2022-10-10T14:10:24;21.50;57.00
10644;DHT22;5370;50.132;8.626;2022-10-10T14:12:53;21.50;56.60
10644;DHT22;5370;50.132;8.626;2022-10-10T14:18:18;21.40;56.60
10644;DHT22;5370;50.132;8.626;2022-10-10T14:20:45;21.30;56.60
10644;DHT22;5370;50.132;8.626;2022-10-10T14:23:11;21.20;56.70
10644;DHT22;5370;50.132;8.626;2022-10-10T14:25:42;21.10;56.80
10644;DHT22;5370;50.132;8.626;2022-10-10T14:28:21;21.10;56.90
10644;DHT22;5370;50.132;8.626;2022-10-10T14:30:48;21.00;57.00
10644;DHT22;5370;50.132;8.626;2022-10-10T14:33:17;20.90;57.00
10644;DHT22;5370;50.132;8.626;2022-10-10T14:35:44;20.80;57.10
10644;DHT22;5370;50.132;8.626;2022-10-10T14:38:10;20.70;57.20
10644;DHT22;5370;50.132;8.626;2022-10-10T14:40:37;20.70;57.40
10644;DHT22;5370;50.132;8.626;2022-10-10T14:43:03;20.60;57.50
10644;DHT22;5370;50.132;8.626;2022-10-10T14:45:28;20.60;57.60
10644;DHT22;5370;50.132;8.626;2022-10-10T14:47:54;20.50;57.70
10644;DHT22;5370;50.132;8.626;2022-10-10T14:50:22;20.50;57.90
10644;DHT22;5370;50.132;8.626;2022-10-10T14:52:49;20.50;58.00
10644;DHT22;5370;50.132;8.626;2022-10-10T14:55:14;20.60;58.20
10644;DHT22;5370;50.132;8.626;2022-10-10T14:57:40;20.60;58.30
10644;DHT22;5370;50.132;8.626;2022-10-10T15:00:10;20.70;58.50
10644;DHT22;5370;50.132;8.626;2022-10-10T15:02:37;20.70;58.40
10644;DHT22;5370;50.132;8.626;2022-10-10T15:05:03;20.60;58.40
10644;DHT22;5370;50.132;8.626;2022-10-10T15:07:29;20.60;58.50
10644;DHT22;5370;50.132;8.626;2022-10-10T15:09:54;20.60;58.60
10644;DHT22;5370;50.132;8.626;2022-10-10T15:12:20;20.50;58.80
10644;DHT22;5370;50.132;8.626;2022-10-10T15:14:46;20.50;59.00
10644;DHT22;5370;50.132;8.626;2022-10-10T15:17:11;20.50;59.10
10644;DHT22;5370;50.132;8.626;2022-10-10T15:19:37;20.50;59.20
10644;DHT22;5370;50.132;8.626;2022-10-10T15:22:02;20.50;59.30
10644;DHT22;5370;50.132;8.626;2022-10-10T15:24:28;20.40;59.40
10644;DHT22;5370;50.132;8.626;2022-10-10T15:26:53;20.40;59.50
10644;DHT22;5370;50.132;8.626;2022-10-10T15:29:19;20.30;59.80
10644;DHT22;5370;50.132;8.626;2022-10-10T15:31:44;20.20;60.00
10644;DHT22;5370;50.132;8.626;2022-10-10T15:34:10;20.10;60.30
10644;DHT22;5370;50.132;8.626;2022-10-10T15:36:35;20.00;60.70
10644;DHT22;5370;50.132;8.626;2022-10-10T15:39:04;19.90;61.10
10644;DHT22;5370;50.132;8.626;2022-10-10T15:41:30;19.90;61.40
10644;DHT22;5370;50.132;8.626;2022-10-10T15:43:55;19.90;61.80
10644;DHT22;5370;50.132;8.626;2022-10-10T15:46:23;19.80;62.00
10644;DHT22;5370;50.132;8.626;2022-10-10T15:48:49;19.80;62.20
10644;DHT22;5370;50.132;8.626;2022-10-10T15:51:15;19.80;62.20
10644;DHT22;5370;50.132;8.626;2022-10-10T15:53:41;19.80;62.40
10644;DHT22;5370;50.132;8.626;2022-10-10T15:56:09;19.80;62.70
10644;DHT22;5370;50.132;8.626;2022-10-10T15:58:36;19.70;63.10
10644;DHT22;5370;50.132;8.626;2022-10-10T16:01:13;19.60;63.30
10644;DHT22;5370;50.132;8.626;2022-10-10T16:03:40;19.60;63.60
10644;DHT22;5370;50.132;8.626;2022-10-10T16:06:07;19.50;63.90
10644;DHT22;5370;50.132;8.626;2022-10-10T16:08:33;19.40;64.20
10644;DHT22;5370;50.132;8.626;2022-10-10T16:11:04;19.30;64.50
10644;DHT22;5370;50.132;8.626;2022-10-10T16:13:30;19.20;65.00
10644;DHT22;5370;50.132;8.626;2022-10-10T16:15:58;19.10;65.30
10644;DHT22;5370;50.132;8.626;2022-10-10T16:18:24;19.00;65.80
10644;DHT22;5370;50.132;8.626;2022-10-10T16:20:50;18.80;66.30
10644;DHT22;5370;50.132;8.626;2022-10-10T16:23:15;18.70;66.70
10644;DHT22;5370;50.132;8.626;2022-10-10T16:25:41;18.60;67.30
10644;DHT22;5370;50.132;8.626;2022-10-10T16:28:06;18.50;67.80
10644;DHT22;5370;50.132;8.626;2022-10-10T16:30:32;18.40;68.10
10644;DHT22;5370;50.132;8.626;2022-10-10T16:32:58;18.20;68.60
10644;DHT22;5370;50.132;8.626;2022-10-10T16:35:24;18.20;69.20
10644;DHT22;5370;50.132;8.626;2022-10-10T16:37:49;18.00;69.50
10644;DHT22;5370;50.132;8.626;2022-10-10T16:40:15;17.90;70.10
10644;DHT22;5370;50.132;8.626;2022-10-10T16:42:40;17.90;70.70
10644;DHT22;5370;50.132;8.626;2022-10-10T16:45:06;17.80;71.20
10644;DHT22;5370;50.132;8.626;2022-10-10T16:47:32;17.70;71.60
10644;DHT22;5370;50.132;8.626;2022-10-10T16:49:58;17.70;72.00
10644;DHT22;5370;50.132;8.626;2022-10-10T16:52:23;17.60;72.30
10644;DHT22;5370;50.132;8.626;2022-10-10T16:54:49;17.60;72.80
10644;DHT22;5370;50.132;8.626;2022-10-10T16:57:14;17.50;73.20
10644;DHT22;5370;50.132;8.626;2022-10-10T16:59:40;17.40;73.50
10644;DHT22;5370;50.132;8.626;2022-10-10T17:02:06;17.40;73.90
10644;DHT22;5370;50.132;8.626;2022-10-10T17:04:31;17.30;74.30
10644;DHT22;5370;50.132;8.626;2022-10-10T17:06:57;17.30;75.00
10644;DHT22;5370;50.132;8.626;2022-10-10T17:09:23;17.20;75.50
10644;DHT22;5370;50.132;8.626;2022-10-10T17:11:49;17.20;76.10
10644;DHT22;5370;50.132;8.626;2022-10-10T17:14:14;17.10;76.50
10644;DHT22;5370;50.132;8.626;2022-10-10T17:16:40;17.10;77.10
10644;DHT22;5370;50.132;8.626;2022-10-10T17:19:06;17.10;77.60
10644;DHT22;5370;50.132;8.626;2022-10-10T17:21:32;17.10;78.00
10644;DHT22;5370;50.132;8.626;2022-10-10T17:23:58;17.10;78.50
10644;DHT22;5370;50.132;8.626;2022-10-10T17:26:23;17.10;79.00
10644;DHT22;5370;50.132;8.626;2022-10-10T17:28:53;17.10;79.40
10644;DHT22;5370;50.132;8.626;2022-10-10T17:31:19;17.00;79.70